sensor_id;sensor_type;location;lat;lon;timestamp;pressure;altitude;pressure_sealevel;temperature;humidity
33845;BME280;20145;43.118;25.694;2023-07-24T00:01:08;99569.16;;;22.33;94.47
33845;BME280;20145;43.118;25.694;2023-07-24T00:03:34;99571.41;;;22.39;95.48
33845;BME280;20145;43.118;25.694;2023-07-24T00:05:59;99569.19;;;22.47;94.93
33845;BME280;20145;43.118;25.694;2023-07-24T00:08:25;99565.47;;;22.51;94.76
33845;BME280;20145;43.118;25.694;2023-07-24T00:10:51;99566.31;;;22.52;94.17
33845;BME280;20145;43.118;25.694;2023-07-24T00:13:16;99563.84;;;22.48;93.84
33845;BME280;20145;43.118;25.694;2023-07-24T00:15:42;99565.53;;;22.49;94.00
33845;BME280;20145;43.118;25.694;2023-07-24T00:18:07;99568.59;;;22.42;93.45
33845;BME280;20145;43.118;25.694;2023-07-24T00:20:33;99559.66;;;22.30;94.59
33845;BME280;20145;43.118;25.694;2023-07-24T00:22:58;99569.06;;;22.34;94.97
33845;BME280;20145;43.118;25.694;2023-07-24T00:25:24;99578.84;;;22.32;95.27
33845;BME280;20145;43.118;25.694;2023-07-24T00:27:49;99572.72;;;22.32;94.43
33845;BME280;20145;43.118;25.694;2023-07-24T00:30:15;99572.16;;;22.26;94.53
33845;BME280;20145;43.118;25.694;2023-07-24T00:32:41;99563.84;;;22.18;95.07
33845;BME280;20145;43.118;25.694;2023-07-24T00:35:07;99572.72;;;22.16;95.96
33845;BME280;20145;43.118;25.694;2023-07-24T00:37:33;99571.97;;;22.14;96.52
33845;BME280;20145;43.118;25.694;2023-07-24T00:40:00;99576.28;;;22.15;96.98
33845;BME280;20145;43.118;25.694;2023-07-24T00:42:25;99575.22;;;22.19;96.63
33845;BME280;20145;43.118;25.694;2023-07-24T00:44:51;99568.84;;;22.23;97.00
33845;BME280;20145;43.118;25.694;2023-07-24T00:47:17;99568.50;;;22.29;97.62
33845;BME280;20145;43.118;25.694;2023-07-24T00:49:43;99564.22;;;22.42;95.90
33845;BME280;20145;43.118;25.694;2023-07-24T00:52:10;99555.41;;;22.58;94.30
33845;BME280;20145;43.118;25.694;2023-07-24T00:54:36;99568.69;;;22.70;95.02
33845;BME280;20145;43.118;25.694;2023-07-24T00:57:03;99562.13;;;22.78;94.84
33845;BME280;20145;43.118;25.694;2023-07-24T00:59:30;99565.50;;;22.80;94.65
33845;BME280;20145;43.118;25.694;2023-07-24T01:01:56;99575.00;;;22.82;93.62
33845;BME280;20145;43.118;25.694;2023-07-24T01:04:22;99565.44;;;22.81;93.08
33845;BME280;20145;43.118;25.694;2023-07-24T01:06:47;99575.38;;;22.90;93.06
33845;BME280;20145;43.118;25.694;2023-07-24T01:09:13;99572.00;;;22.88;92.74
33845;BME280;20145;43.118;25.694;2023-07-24T01:14:45;99571.81;;;22.91;91.51
33845;BME280;20145;43.118;25.694;2023-07-24T01:17:14;99559.78;;;22.87;90.89
33845;BME280;20145;43.118;25.694;2023-07-24T01:19:46;99552.91;;;22.85;90.54
33845;BME280;20145;43.118;25.694;2023-07-24T01:27:28;99540.47;;;22.58;90.67
33845;BME280;20145;43.118;25.694;2023-07-24T01:29:53;99546.59;;;22.59;90.38
33845;BME280;20145;43.118;25.694;2023-07-24T01:32:19;99548.72;;;22.52;90.34
33845;BME280;20145;43.118;25.694;2023-07-24T01:34:46;99553.78;;;22.41;91.02
33845;BME280;20145;43.118;25.694;2023-07-24T01:37:12;99556.38;;;22.26;91.39
33845;BME280;20145;43.118;25.694;2023-07-24T01:39:40;99567.91;;;22.24;92.09
33845;BME280;20145;43.118;25.694;2023-07-24T01:42:07;99560.28;;;22.19;92.14
33845;BME280;20145;43.118;25.694;2023-07-24T01:44:33;99557.06;;;22.14;93.04
33845;BME280;20145;43.118;25.694;2023-07-24T01:46:59;99564.94;;;22.14;92.04
33845;BME280;20145;43.118;25.694;2023-07-24T01:49:25;99557.38;;;22.08;91.75
33845;BME280;20145;43.118;25.694;2023-07-24T01:51:51;99558.00;;;21.97;92.14
33845;BME280;20145;43.118;25.694;2023-07-24T01:54:16;99557.69;;;21.88;92.28
33845;BME280;20145;43.118;25.694;2023-07-24T01:56:42;99561.56;;;21.80;92.61
33845;BME280;20145;43.118;25.694;2023-07-24T01:59:09;99559.81;;;21.65;93.87
33845;BME280;20145;43.118;25.694;2023-07-24T02:01:35;99561.84;;;21.60;93.54
33845;BME280;20145;43.118;25.694;2023-07-24T02:04:01;99559.22;;;21.60;94.30
33845;BME280;20145;43.118;25.694;2023-07-24T02:06:26;99556.00;;;21.55;95.18
33845;BME280;20145;43.118;25.694;2023-07-24T02:08:52;99559.47;;;21.55;95.46
33845;BME280;20145;43.118;25.694;2023-07-24T02:11:18;99565.47;;;21.57;95.17
33845;BME280;20145;43.118;25.694;2023-07-24T02:13:44;99563.47;;;21.63;93.88
33845;BME280;20145;43.118;25.694;2023-07-24T02:16:11;99568.88;;;21.59;94.85
33845;BME280;20145;43.118;25.694;2023-07-24T02:18:37;99560.41;;;21.54;95.29
33845;BME280;20145;43.118;25.694;2023-07-24T02:21:03;99558.03;;;21.50;95.33
33845;BME280;20145;43.118;25.694;2023-07-24T02:23:28;99564.44;;;21.44;94.84
33845;BME280;20145;43.118;25.694;2023-07-24T02:25:54;99564.72;;;21.40;95.30
33845;BME280;20145;43.118;25.694;2023-07-24T02:28:20;99569.19;;;21.37;95.27
33845;BME280;20145;43.118;25.694;2023-07-24T02:30:48;99573.75;;;21.34;95.61
33845;BME280;20145;43.118;25.694;2023-07-24T02:33:14;99575.66;;;21.30;96.10
33845;BME280;20145;43.118;25.694;2023-07-24T02:35:40;99571.19;;;21.32;96.48
33845;BME280;20145;43.118;25.694;2023-07-24T02:38:06;99574.47;;;21.36;96.85
33845;BME280;20145;43.118;25.694;2023-07-24T02:40:32;99579.84;;;21.34;96.23
33845;BME280;20145;43.118;25.694;2023-07-24T02:42:57;99584.16;;;21.35;96.73
33845;BME280;20145;43.118;25.694;2023-07-24T02:45:23;99581.69;;;21.32;96.82
33845;BME280;20145;43.118;25.694;2023-07-24T02:47:49;99577.44;;;21.30;96.53
33845;BME280;20145;43.118;25.694;2023-07-24T02:50:15;99577.38;;;21.31;96.77
33845;BME280;20145;43.118;25.694;2023-07-24T02:52:40;99572.13;;;21.31;96.63
33845;BME280;20145;43.118;25.694;2023-07-24T02:55:06;99566.88;;;21.31;97.13
33845;BME280;20145;43.118;25.694;2023-07-24T02:57:31;99572.66;;;21.38;96.47
33845;BME280;20145;43.118;25.694;2023-07-24T02:59:57;99576.06;;;21.40;96.29
33845;BME280;20145;43.118;25.694;2023-07-24T03:02:23;99572.03;;;21.33;95.66
33845;BME280;20145;43.118;25.694;2023-07-24T03:04:48;99569.63;;;21.28;95.66
33845;BME280;20145;43.118;25.694;2023-07-24T03:07:14;99583.63;;;21.29;96.83
33845;BME280;20145;43.118;25.694;2023-07-24T03:09:39;99573.88;;;21.31;95.76
33845;BME280;20145;43.118;25.694;2023-07-24T03:12:05;99579.84;;;21.34;96.47
33845;BME280;20145;43.118;25.694;2023-07-24T03:14:31;99576.91;;;21.41;95.28
33845;BME280;20145;43.118;25.694;2023-07-24T03:16:56;99579.06;;;21.32;96.09
33845;BME280;20145;43.118;25.694;2023-07-24T03:19:22;99580.84;;;21.32;95.72
33845;BME280;20145;43.118;25.694;2023-07-24T03:21:47;99565.44;;;21.26;94.98
33845;BME280;20145;43.118;25.694;2023-07-24T03:24:13;99573.38;;;21.24;95.71
33845;BME280;20145;43.118;25.694;2023-07-24T03:26:38;99565.44;;;21.26;96.12
33845;BME280;20145;43.118;25.694;2023-07-24T03:29:05;99572.81;;;21.35;96.87
33845;BME280;20145;43.118;25.694;2023-07-24T03:31:30;99566.47;;;21.39;95.97
33845;BME280;20145;43.118;25.694;2023-07-24T03:33:56;99572.31;;;21.44;95.39
33845;BME280;20145;43.118;25.694;2023-07-24T03:36:21;99560.16;;;21.43;95.93
33845;BME280;20145;43.118;25.694;2023-07-24T03:38:47;99558.97;;;21.49;95.87
33845;BME280;20145;43.118;25.694;2023-07-24T03:41:12;99555.16;;;21.54;96.05
33845;BME280;20145;43.118;25.694;2023-07-24T03:43:38;99545.41;;;21.56;95.82
33845;BME280;20145;43.118;25.694;2023-07-24T03:46:03;99555.66;;;21.77;95.13
33845;BME280;20145;43.118;25.694;2023-07-24T03:48:29;99552.31;;;21.89;95.03
33845;BME280;20145;43.118;25.694;2023-07-24T03:50:58;99560.28;;;22.03;93.83
33845;BME280;20145;43.118;25.694;2023-07-24T03:53:25;99553.56;;;22.14;93.54
33845;BME280;20145;43.118;25.694;2023-07-24T03:55:51;99559.59;;;22.32;92.78
33845;BME280;20145;43.118;25.694;2023-07-24T03:58:16;99565.66;;;22.48;92.42
33845;BME280;20145;43.118;25.694;2023-07-24T04:00:42;99559.38;;;22.65;90.88
33845;BME280;20145;43.118;25.694;2023-07-24T04:03:08;99563.25;;;22.88;90.31
33845;BME280;20145;43.118;25.694;2023-07-24T04:05:34;99561.41;;;23.19;89.33
33845;BME280;20145;43.118;25.694;2023-07-24T04:08:00;99566.16;;;23.55;87.21
33845;BME280;20145;43.118;25.694;2023-07-24T04:10:26;99567.34;;;23.92;84.83
33845;BME280;20145;43.118;25.694;2023-07-24T04:12:51;99569.06;;;24.33;83.14
33845;BME280;20145;43.118;25.694;2023-07-24T04:15:17;99568.81;;;24.63;81.25
33845;BME280;20145;43.118;25.694;2023-07-24T04:17:43;99566.94;;;25.04;79.94
33845;BME280;20145;43.118;25.694;2023-07-24T04:20:09;99567.13;;;25.39;78.94
33845;BME280;20145;43.118;25.694;2023-07-24T04:22:35;99577.94;;;25.73;77.10
33845;BME280;20145;43.118;25.694;2023-07-24T04:25:00;99572.28;;;26.14;76.29
33845;BME280;20145;43.118;25.694;2023-07-24T04:27:26;99578.66;;;26.47;73.02
33845;BME280;20145;43.118;25.694;2023-07-24T04:29:51;99567.09;;;26.72;71.39
33845;BME280;20145;43.118;25.694;2023-07-24T04:32:17;99576.53;;;26.52;69.38
33845;BME280;20145;43.118;25.694;2023-07-24T04:34:43;99574.28;;;26.59;70.27
33845;BME280;20145;43.118;25.694;2023-07-24T04:37:08;99575.84;;;26.37;68.89
33845;BME280;20145;43.118;25.694;2023-07-24T04:39:34;99582.84;;;26.38;70.22
33845;BME280;20145;43.118;25.694;2023-07-24T04:41:59;99584.38;;;26.30;68.63
33845;BME280;20145;43.118;25.694;2023-07-24T04:44:25;99579.16;;;26.52;68.38
33845;BME280;20145;43.118;25.694;2023-07-24T04:46:51;99575.28;;;26.69;68.38
33845;BME280;20145;43.118;25.694;2023-07-24T04:49:16;99572.28;;;26.85;68.01
33845;BME280;20145;43.118;25.694;2023-07-24T04:51:42;99577.34;;;26.99;67.98
33845;BME280;20145;43.118;25.694;2023-07-24T04:54:07;99573.72;;;26.78;69.39
33845;BME280;20145;43.118;25.694;2023-07-24T04:56:33;99574.09;;;26.96;69.04
33845;BME280;20145;43.118;25.694;2023-07-24T04:58:58;99569.88;;;27.04;68.80
33845;BME280;20145;43.118;25.694;2023-07-24T05:01:24;99576.78;;;27.18;68.97
33845;BME280;20145;43.118;25.694;2023-07-24T05:03:49;99580.50;;;27.27;69.98
33845;BME280;20145;43.118;25.694;2023-07-24T05:06:15;99574.97;;;27.19;69.10
33845;BME280;20145;43.118;25.694;2023-07-24T05:08:41;99573.88;;;27.32;68.96
33845;BME280;20145;43.118;25.694;2023-07-24T05:11:06;99583.66;;;27.21;69.03
33845;BME280;20145;43.118;25.694;2023-07-24T05:13:33;99583.41;;;27.24;67.63
33845;BME280;20145;43.118;25.694;2023-07-24T05:15:59;99585.47;;;27.31;68.47
33845;BME280;20145;43.118;25.694;2023-07-24T05:18:24;99589.56;;;27.47;68.83
33845;BME280;20145;43.118;25.694;2023-07-24T05:20:50;99587.03;;;27.45;65.90
33845;BME280;20145;43.118;25.694;2023-07-24T05:23:19;99580.38;;;27.51;67.33
33845;BME280;20145;43.118;25.694;2023-07-24T05:25:45;99587.38;;;27.52;65.17
33845;BME280;20145;43.118;25.694;2023-07-24T05:28:10;99579.88;;;27.68;65.02
33845;BME280;20145;43.118;25.694;2023-07-24T05:30:36;99577.59;;;27.75;65.71
33845;BME280;20145;43.118;25.694;2023-07-24T05:33:01;99573.00;;;27.88;66.19
33845;BME280;20145;43.118;25.694;2023-07-24T05:35:27;99576.25;;;27.92;64.92
33845;BME280;20145;43.118;25.694;2023-07-24T05:37:53;99567.47;;;27.80;64.63
33845;BME280;20145;43.118;25.694;2023-07-24T05:40:18;99574.69;;;27.78;64.82
33845;BME280;20145;43.118;25.694;2023-07-24T05:42:44;99567.69;;;27.88;65.43
33845;BME280;20145;43.118;25.694;2023-07-24T05:45:10;99564.84;;;27.80;66.75
33845;BME280;20145;43.118;25.694;2023-07-24T05:47:40;99563.44;;;27.97;67.25
33845;BME280;20145;43.118;25.694;2023-07-24T05:50:06;99558.63;;;28.02;68.24
33845;BME280;20145;43.118;25.694;2023-07-24T05:52:31;99563.00;;;28.13;68.39
33845;BME280;20145;43.118;25.694;2023-07-24T05:54:58;99567.94;;;28.17;65.77
33845;BME280;20145;43.118;25.694;2023-07-24T05:57:23;99557.47;;;28.16;65.42
33845;BME280;20145;43.118;25.694;2023-07-24T05:59:49;99553.97;;;28.15;65.29
33845;BME280;20145;43.118;25.694;2023-07-24T06:02:17;99561.28;;;28.23;66.01
33845;BME280;20145;43.118;25.694;2023-07-24T06:04:42;99564.97;;;28.32;65.23
33845;BME280;20145;43.118;25.694;2023-07-24T06:07:08;99569.41;;;28.21;65.68
33845;BME280;20145;43.118;25.694;2023-07-24T06:09:33;99524.41;;;27.88;66.90
33845;BME280;20145;43.118;25.694;2023-07-24T06:11:59;99567.72;;;28.09;66.24
33845;BME280;20145;43.118;25.694;2023-07-24T06:14:25;99572.00;;;28.33;66.94
33845;BME280;20145;43.118;25.694;2023-07-24T06:16:50;99576.63;;;28.52;66.35
33845;BME280;20145;43.118;25.694;2023-07-24T06:19:16;99577.34;;;28.54;66.68
33845;BME280;20145;43.118;25.694;2023-07-24T06:21:43;99573.78;;;28.64;66.47
33845;BME280;20145;43.118;25.694;2023-07-24T06:24:08;99577.34;;;28.75;66.10
33845;BME280;20145;43.118;25.694;2023-07-24T06:26:37;99569.63;;;28.72;66.17
33845;BME280;20145;43.118;25.694;2023-07-24T06:29:03;99564.28;;;28.92;66.26
33845;BME280;20145;43.118;25.694;2023-07-24T06:31:28;99566.69;;;29.17;65.01
33845;BME280;20145;43.118;25.694;2023-07-24T06:33:55;99554.66;;;29.01;65.17
33845;BME280;20145;43.118;25.694;2023-07-24T06:36:20;99558.78;;;29.05;65.57
33845;BME280;20145;43.118;25.694;2023-07-24T06:38:47;99562.28;;;29.06;65.63
33845;BME280;20145;43.118;25.694;2023-07-24T06:41:14;99555.03;;;29.08;66.27
33845;BME280;20145;43.118;25.694;2023-07-24T06:43:41;99559.69;;;29.16;65.80
33845;BME280;20145;43.118;25.694;2023-07-24T06:46:07;99562.91;;;29.19;65.87
33845;BME280;20145;43.118;25.694;2023-07-24T06:48:33;99561.56;;;29.04;66.01
33845;BME280;20145;43.118;25.694;2023-07-24T06:50:58;99553.38;;;28.96;66.33
33845;BME280;20145;43.118;25.694;2023-07-24T06:53:24;99552.06;;;28.80;66.70
33845;BME280;20145;43.118;25.694;2023-07-24T06:55:49;99557.09;;;29.04;66.08
33845;BME280;20145;43.118;25.694;2023-07-24T06:58:15;99554.19;;;29.07;65.47
33845;BME280;20145;43.118;25.694;2023-07-24T07:00:42;99553.00;;;29.21;66.50
33845;BME280;20145;43.118;25.694;2023-07-24T07:03:07;99555.66;;;29.31;65.40
33845;BME280;20145;43.118;25.694;2023-07-24T07:05:33;99554.97;;;29.29;64.79
33845;BME280;20145;43.118;25.694;2023-07-24T07:07:58;99551.06;;;29.33;64.83
33845;BME280;20145;43.118;25.694;2023-07-24T07:10:24;99567.03;;;29.33;64.72
33845;BME280;20145;43.118;25.694;2023-07-24T07:12:49;99561.44;;;29.46;64.60
33845;BME280;20145;43.118;25.694;2023-07-24T07:15:15;99565.72;;;29.68;63.47
33845;BME280;20145;43.118;25.694;2023-07-24T07:17:41;99557.09;;;29.85;63.05
33845;BME280;20145;43.118;25.694;2023-07-24T07:20:07;99549.97;;;29.86;63.18
33845;BME280;20145;43.118;25.694;2023-07-24T07:22:33;99550.22;;;29.73;61.99
33845;BME280;20145;43.118;25.694;2023-07-24T07:24:58;99546.16;;;29.69;61.87
33845;BME280;20145;43.118;25.694;2023-07-24T07:27:24;99548.06;;;29.57;62.63
33845;BME280;20145;43.118;25.694;2023-07-24T07:29:49;99540.28;;;29.75;63.36
33845;BME280;20145;43.118;25.694;2023-07-24T07:32:15;99536.94;;;29.83;62.98
33845;BME280;20145;43.118;25.694;2023-07-24T07:34:40;99519.66;;;29.57;62.47
33845;BME280;20145;43.118;25.694;2023-07-24T07:37:06;99537.59;;;29.65;62.68
33845;BME280;20145;43.118;25.694;2023-07-24T07:39:32;99536.78;;;29.84;62.45
33845;BME280;20145;43.118;25.694;2023-07-24T07:41:58;99545.91;;;29.91;61.29
33845;BME280;20145;43.118;25.694;2023-07-24T07:44:23;99542.81;;;29.86;60.56
33845;BME280;20145;43.118;25.694;2023-07-24T07:46:49;99534.41;;;29.91;60.47
33845;BME280;20145;43.118;25.694;2023-07-24T07:49:14;99528.50;;;30.07;59.59
33845;BME280;20145;43.118;25.694;2023-07-24T07:51:40;99530.06;;;29.99;59.34
33845;BME280;20145;43.118;25.694;2023-07-24T07:54:05;99536.38;;;30.08;58.92
33845;BME280;20145;43.118;25.694;2023-07-24T07:56:31;99539.47;;;30.23;59.50
33845;BME280;20145;43.118;25.694;2023-07-24T07:58:56;99531.19;;;30.16;57.30
33845;BME280;20145;43.118;25.694;2023-07-24T08:01:22;99537.63;;;30.14;57.28
33845;BME280;20145;43.118;25.694;2023-07-24T08:03:48;99536.28;;;30.29;57.26
33845;BME280;20145;43.118;25.694;2023-07-24T08:06:13;99533.69;;;30.18;56.22
33845;BME280;20145;43.118;25.694;2023-07-24T08:08:39;99524.59;;;30.40;57.14
33845;BME280;20145;43.118;25.694;2023-07-24T08:11:05;99520.94;;;30.60;56.37
33845;BME280;20145;43.118;25.694;2023-07-24T08:13:32;99523.13;;;30.75;56.11
33845;BME280;20145;43.118;25.694;2023-07-24T08:15:57;99515.31;;;30.63;53.78
33845;BME280;20145;43.118;25.694;2023-07-24T08:18:25;99503.78;;;30.73;51.13
33845;BME280;20145;43.118;25.694;2023-07-24T08:20:51;99515.56;;;30.80;51.68
33845;BME280;20145;43.118;25.694;2023-07-24T08:23:16;99504.91;;;30.70;52.63
33845;BME280;20145;43.118;25.694;2023-07-24T08:25:52;99508.41;;;30.80;49.59
33845;BME280;20145;43.118;25.694;2023-07-24T08:28:18;99502.69;;;30.65;49.06
33845;BME280;20145;43.118;25.694;2023-07-24T08:30:44;99499.75;;;30.59;49.12
33845;BME280;20145;43.118;25.694;2023-07-24T08:33:09;99507.44;;;30.62;49.92
33845;BME280;20145;43.118;25.694;2023-07-24T08:35:35;99500.34;;;30.53;49.90
33845;BME280;20145;43.118;25.694;2023-07-24T08:38:00;99496.50;;;30.65;50.15
33845;BME280;20145;43.118;25.694;2023-07-24T08:40:26;99489.19;;;30.77;49.94
33845;BME280;20145;43.118;25.694;2023-07-24T08:42:52;99498.72;;;30.79;50.48
33845;BME280;20145;43.118;25.694;2023-07-24T08:45:18;99500.03;;;30.56;50.04
33845;BME280;20145;43.118;25.694;2023-07-24T08:47:45;99495.38;;;30.67;50.16
33845;BME280;20145;43.118;25.694;2023-07-24T08:50:10;99497.63;;;30.82;50.00
33845;BME280;20145;43.118;25.694;2023-07-24T08:52:41;99498.84;;;30.87;49.75
33845;BME280;20145;43.118;25.694;2023-07-24T08:55:08;99495.66;;;30.74;49.62
33845;BME280;20145;43.118;25.694;2023-07-24T08:57:34;99482.50;;;30.63;50.55
33845;BME280;20145;43.118;25.694;2023-07-24T09:00:00;99494.53;;;30.77;49.69
33845;BME280;20145;43.118;25.694;2023-07-24T09:02:33;99499.59;;;30.80;50.28
33845;BME280;20145;43.118;25.694;2023-07-24T09:04:59;99481.88;;;30.88;49.62
33845;BME280;20145;43.118;25.694;2023-07-24T09:07:25;99494.47;;;30.96;49.25
33845;BME280;20145;43.118;25.694;2023-07-24T09:09:51;99489.97;;;30.97;48.61
33845;BME280;20145;43.118;25.694;2023-07-24T09:12:16;99484.38;;;31.18;48.74
33845;BME280;20145;43.118;25.694;2023-07-24T09:14:42;99486.00;;;31.28;48.17
33845;BME280;20145;43.118;25.694;2023-07-24T09:17:11;99488.88;;;31.45;48.65
33845;BME280;20145;43.118;25.694;2023-07-24T09:19:37;99481.63;;;31.37;48.80
33845;BME280;20145;43.118;25.694;2023-07-24T09:22:16;99485.56;;;31.33;47.54
33845;BME280;20145;43.118;25.694;2023-07-24T09:24:57;99474.03;;;31.42;48.18
33845;BME280;20145;43.118;25.694;2023-07-24T09:27:28;99468.94;;;31.49;48.05
33845;BME280;20145;43.118;25.694;2023-07-24T09:29:55;99462.22;;;31.81;48.80
33845;BME280;20145;43.118;25.694;2023-07-24T09:32:26;99467.59;;;31.98;48.95
33845;BME280;20145;43.118;25.694;2023-07-24T09:34:52;99467.63;;;31.89;46.11
33845;BME280;20145;43.118;25.694;2023-07-24T09:39:50;99460.25;;;31.83;45.63
33845;BME280;20145;43.118;25.694;2023-07-24T09:42:15;99460.63;;;31.88;48.21
33845;BME280;20145;43.118;25.694;2023-07-24T09:44:41;99463.16;;;32.07;48.44
33845;BME280;20145;43.118;25.694;2023-07-24T09:47:07;99460.00;;;32.12;46.88
33845;BME280;20145;43.118;25.694;2023-07-24T09:49:33;99457.44;;;32.02;45.12
33845;BME280;20145;43.118;25.694;2023-07-24T09:51:59;99458.78;;;31.88;46.25
33845;BME280;20145;43.118;25.694;2023-07-24T09:54:33;99454.28;;;31.89;44.46
33845;BME280;20145;43.118;25.694;2023-07-24T09:57:07;99443.31;;;31.74;46.08
33845;BME280;20145;43.118;25.694;2023-07-24T09:59:34;99442.16;;;32.12;46.31
33845;BME280;20145;43.118;25.694;2023-07-24T10:02:00;99443.56;;;32.51;47.57
33845;BME280;20145;43.118;25.694;2023-07-24T10:04:27;99440.75;;;32.52;43.20
33845;BME280;20145;43.118;25.694;2023-07-24T10:06:53;99435.03;;;32.73;43.17
33845;BME280;20145;43.118;25.694;2023-07-24T10:09:19;99432.06;;;32.84;42.93
33845;BME280;20145;43.118;25.694;2023-07-24T10:11:49;99429.84;;;33.14;42.12
33845;BME280;20145;43.118;25.694;2023-07-24T10:14:16;99422.00;;;33.13;42.21
33845;BME280;20145;43.118;25.694;2023-07-24T10:16:42;99428.72;;;33.33;43.57
33845;BME280;20145;43.118;25.694;2023-07-24T10:19:18;99419.88;;;33.41;43.66
33845;BME280;20145;43.118;25.694;2023-07-24T10:21:51;99416.38;;;33.48;42.59
33845;BME280;20145;43.118;25.694;2023-07-24T10:24:16;99411.84;;;33.32;41.87
33845;BME280;20145;43.118;25.694;2023-07-24T10:26:42;99411.28;;;33.13;41.84
33845;BME280;20145;43.118;25.694;2023-07-24T10:29:10;99412.94;;;33.05;41.43
33845;BME280;20145;43.118;25.694;2023-07-24T10:31:36;99406.41;;;33.00;41.42
33845;BME280;20145;43.118;25.694;2023-07-24T10:34:05;99412.47;;;33.18;41.17
33845;BME280;20145;43.118;25.694;2023-07-24T10:36:35;99412.28;;;33.12;41.21
33845;BME280;20145;43.118;25.694;2023-07-24T10:39:01;99402.63;;;33.27;40.35
33845;BME280;20145;43.118;25.694;2023-07-24T10:41:36;99403.97;;;33.39;38.79
33845;BME280;20145;43.118;25.694;2023-07-24T10:44:02;99398.47;;;33.49;38.55
33845;BME280;20145;43.118;25.694;2023-07-24T10:46:39;99403.53;;;33.60;38.30
33845;BME280;20145;43.118;25.694;2023-07-24T10:49:07;99396.59;;;33.33;39.71
33845;BME280;20145;43.118;25.694;2023-07-24T10:51:32;99393.94;;;33.41;39.69
33845;BME280;20145;43.118;25.694;2023-07-24T10:54:01;99390.25;;;33.26;39.64
33845;BME280;20145;43.118;25.694;2023-07-24T10:56:27;99387.56;;;33.09;40.72
33845;BME280;20145;43.118;25.694;2023-07-24T10:58:53;99378.44;;;32.94;41.14
33845;BME280;20145;43.118;25.694;2023-07-24T11:01:18;99374.78;;;32.95;41.34
33845;BME280;20145;43.118;25.694;2023-07-24T11:03:44;99368.56;;;32.86;41.63
33845;BME280;20145;43.118;25.694;2023-07-24T11:06:18;99370.09;;;32.97;42.57
33845;BME280;20145;43.118;25.694;2023-07-24T11:08:54;99371.31;;;33.11;41.90
33845;BME280;20145;43.118;25.694;2023-07-24T11:11:27;99371.19;;;33.13;43.04
33845;BME280;20145;43.118;25.694;2023-07-24T11:13:53;99368.66;;;33.19;41.32
33845;BME280;20145;43.118;25.694;2023-07-24T11:16:18;99364.00;;;33.21;40.25
33845;BME280;20145;43.118;25.694;2023-07-24T11:18:48;99362.34;;;33.20;38.76
33845;BME280;20145;43.118;25.694;2023-07-24T11:21:14;99357.09;;;33.02;40.26
33845;BME280;20145;43.118;25.694;2023-07-24T11:23:49;99352.44;;;33.04;38.42
33845;BME280;20145;43.118;25.694;2023-07-24T11:26:15;99355.13;;;33.04;39.43
33845;BME280;20145;43.118;25.694;2023-07-24T11:28:41;99357.13;;;33.10;39.09
33845;BME280;20145;43.118;25.694;2023-07-24T11:31:07;99348.09;;;33.20;38.98
33845;BME280;20145;43.118;25.694;2023-07-24T11:33:33;99349.81;;;33.29;40.11
33845;BME280;20145;43.118;25.694;2023-07-24T11:36:00;99350.16;;;33.34;41.13
33845;BME280;20145;43.118;25.694;2023-07-24T11:38:25;99344.44;;;33.13;38.85
33845;BME280;20145;43.118;25.694;2023-07-24T11:40:54;99348.28;;;33.10;38.73
33845;BME280;20145;43.118;25.694;2023-07-24T11:43:22;99341.56;;;33.06;39.27
33845;BME280;20145;43.118;25.694;2023-07-24T11:45:49;99342.75;;;33.20;38.75
33845;BME280;20145;43.118;25.694;2023-07-24T11:48:18;99336.44;;;33.21;37.33
33845;BME280;20145;43.118;25.694;2023-07-24T11:50:49;99329.38;;;33.12;38.25
33845;BME280;20145;43.118;25.694;2023-07-24T11:53:26;99328.41;;;33.21;37.88
33845;BME280;20145;43.118;25.694;2023-07-24T11:55:53;99332.72;;;33.14;37.62
33845;BME280;20145;43.118;25.694;2023-07-24T11:58:20;99321.03;;;33.15;36.94
33845;BME280;20145;43.118;25.694;2023-07-24T12:00:47;99327.38;;;33.30;37.88
33845;BME280;20145;43.118;25.694;2023-07-24T12:03:14;99324.56;;;33.56;39.24
33845;BME280;20145;43.118;25.694;2023-07-24T12:05:41;99314.88;;;33.63;37.01
33845;BME280;20145;43.118;25.694;2023-07-24T12:08:07;99312.84;;;33.73;37.23
33845;BME280;20145;43.118;25.694;2023-07-24T12:10:38;99309.16;;;33.83;37.50
33845;BME280;20145;43.118;25.694;2023-07-24T12:13:05;99315.97;;;33.93;37.31
33845;BME280;20145;43.118;25.694;2023-07-24T12:15:31;99308.97;;;33.92;36.42
33845;BME280;20145;43.118;25.694;2023-07-24T12:17:58;99307.47;;;33.90;37.35
33845;BME280;20145;43.118;25.694;2023-07-24T12:20:24;99313.13;;;33.95;37.46
33845;BME280;20145;43.118;25.694;2023-07-24T12:22:49;99299.41;;;33.98;36.14
33845;BME280;20145;43.118;25.694;2023-07-24T12:25:15;99297.06;;;33.95;35.61
33845;BME280;20145;43.118;25.694;2023-07-24T12:27:42;99293.91;;;33.83;37.23
33845;BME280;20145;43.118;25.694;2023-07-24T12:30:08;99299.09;;;33.93;36.30
33845;BME280;20145;43.118;25.694;2023-07-24T12:32:34;99294.59;;;33.85;35.37
33845;BME280;20145;43.118;25.694;2023-07-24T12:35:00;99298.44;;;33.83;37.83
33845;BME280;20145;43.118;25.694;2023-07-24T12:37:26;99298.56;;;33.89;37.21
33845;BME280;20145;43.118;25.694;2023-07-24T12:39:52;99294.72;;;33.92;37.25
33845;BME280;20145;43.118;25.694;2023-07-24T12:42:17;99287.53;;;34.01;36.97
33845;BME280;20145;43.118;25.694;2023-07-24T12:44:43;99291.50;;;34.13;35.17
33845;BME280;20145;43.118;25.694;2023-07-24T12:47:10;99290.34;;;33.99;35.60
33845;BME280;20145;43.118;25.694;2023-07-24T12:49:36;99285.03;;;33.91;35.84
33845;BME280;20145;43.118;25.694;2023-07-24T12:52:02;99282.69;;;33.96;35.29
33845;BME280;20145;43.118;25.694;2023-07-24T12:54:28;99281.16;;;34.02;34.62
33845;BME280;20145;43.118;25.694;2023-07-24T12:56:53;99263.94;;;33.96;37.00